Terminal Aerodrome Forecast
Issued by NWS

Home | Current Version | Previous Version | Graphics & Text | Print | Product List | Glossary On
Versions: 1 2 3 4 5 6 7 8 9 10 11 12 13 14 15 16 17 18 19 20 21 22 23 24 25 26 27
000
FTUS43 KLOT 231459 CCA
TAFGYY
TAF COR
KGYY 231459Z 2315/2412 21012G20KT 4SM -DZ BR OVC010
      TEMPO 2315/2319 4SM -DZ BR OVC008
     FM232000 24011KT P6SM OVC012
     FM232200 26012G18KT P6SM SCT015 OVC025
     FM240200 29006KT P6SM BKN060
     FM240900 03008KT P6SM BKN050=

USA.gov is the U.S. government's official web portal to all federal, state and local government web resources and services.